Time;durP1;ratioP1;P1;durP2;ratioP2;P2;SDS_P1;SDS_P2;PMS_P1;PMS_P2;Temp;Humidity;BMP_temperature;BMP_pressure;BME280_temperature;BME280_humidity;BME280_pressure;Samples;Min_cycle;Max_cycle;Signal;HPM_P1;HPM_P2
2022/11/07 00:00:53;;;;;;;;;;;;;;;;;;5097423;28;20272;-67
2022/11/07 00:03:19;;;;;;;;;;;;;;;;;;5078542;28;19908;-67
2022/11/07 00:05:44;;;;;;;;;;;;;;;;;;5096852;28;20431;-66
2022/11/07 00:08:10;;;;;;;;;;;;;;;;;;5097033;28;19908;-67
2022/11/07 00:10:36;;;;;;;;;;;;;;;;;;5096755;28;19909;-67
2022/11/07 00:13:02;;;;;;;;;;;;;;;;;;5078789;28;19918;-67
2022/11/07 00:15:28;;;;;;;;;;;;;;;;;;5078712;28;19998;-67
2022/11/07 00:17:54;;;;;;;;;;;;;;;;;;5096449;28;19919;-67
2022/11/07 00:20:20;;;;;;;;;;;;;;;;;;5096840;28;19908;-67
2022/11/07 00:22:46;;;;;;;;;;;;;;;;;;5096833;28;19908;-67
2022/11/07 00:25:12;;;;;;;;;;;;;;;;;;5096318;28;19912;-67
2022/11/07 00:27:38;;;;;;;;;;;;;;;;;;5096668;28;19941;-67
2022/11/07 00:30:04;;;;;;;;;;;;;;;;;;5097069;28;20261;-67
2022/11/07 00:32:30;;;;;;;;;;;;;;;;;;5078050;28;20003;-67
2022/11/07 00:34:56;;;;;;;;;;;;;;;;;;5096568;28;19943;-67
2022/11/07 00:37:22;;;;;;;;;;;;;;;;;;5096483;28;19916;-67
2022/11/07 00:39:48;;;;;;;;;;;;;;;;;;5096125;28;19994;-67
2022/11/07 00:42:14;;;;;;;;;;;;;;;;;;5096447;28;19912;-66
2022/11/07 00:44:40;;;;;;;;;;;;;;;;;;5096406;28;19915;-66
2022/11/07 00:47:06;;;;;;;;;;;;;;;;;;5077596;28;19916;-67
2022/11/07 00:49:32;;;;;;;;;;;;;;;;;;5096274;28;19915;-67
2022/11/07 00:51:57;;;;;;;;;;;;;;;;;;5095798;28;19915;-66
2022/11/07 00:54:23;;;;;;;;;;;;;;;;;;5096265;28;19908;-67
2022/11/07 00:56:49;;;;;;;;;;;;;;;;;;5096181;28;19908;-67
2022/11/07 00:59:15;;;;;;;;;;;;;;;;;;5095640;28;20368;-67
2022/11/07 01:01:41;;;;;;;;;;;;;;;;;;5095975;28;19912;-67
2022/11/07 01:06:52;;;;;;;;;;;;;;;;;;5095369;28;19946;-66
2022/11/07 01:09:18;;;;;;;;;;;;;;;;;;5096193;28;19912;-66
2022/11/07 01:11:44;;;;;;;;;;;;;;;;;;5095941;28;20017;-67
2022/11/07 01:14:10;;;;;;;;;;;;;;;;;;5095516;28;20421;-66
2022/11/07 01:16:37;;;;;;;;;;;;;;;;;;5095805;28;20257;-66
2022/11/07 01:19:03;;;;;;;;;;;;;;;;;;5095765;28;19908;-67
2022/11/07 01:21:29;;;;;;;;;;;;;;;;;;5095421;28;19914;-67
2022/11/07 01:23:55;;;;;;;;;;;;;;;;;;5095717;28;19908;-66
2022/11/07 01:26:21;;;;;;;;;;;;;;;;;;5095552;28;19919;-67
2022/11/07 01:28:47;;;;;;;;;;;;;;;;;;5095150;28;20318;-67
2022/11/07 01:31:13;;;;;;;;;;;;;;;;;;5095484;28;19908;-67
2022/11/07 01:33:39;;;;;;;;;;;;;;;;;;5095438;28;19930;-67
2022/11/07 01:36:07;;;;;;;;;;;;;;;;;;5094947;28;19908;-67
2022/11/07 01:38:33;;;;;;;;;;;;;;;;;;5095371;28;20364;-66
2022/11/07 01:43:43;;;;;;;;;;;;;;;;;;5095366;28;19934;-67
2022/11/07 01:46:09;;;;;;;;;;;;;;;;;;5076938;28;19912;-66
2022/11/07 01:48:35;;;;;;;;;;;;;;;;;;5076552;28;19912;-67
2022/11/07 01:51:01;;;;;;;;;;;;;;;;;;5095752;28;19915;-66
2022/11/07 01:53:27;;;;;;;;;;;;;;;;;;5095127;28;19908;-66
2022/11/07 01:55:53;;;;;;;;;;;;;;;;;;5094632;28;20380;-66
2022/11/07 01:58:19;;;;;;;;;;;;;;;;;;5095030;28;20284;-66
2022/11/07 02:00:45;;;;;;;;;;;;;;;;;;5094829;28;19909;-67
2022/11/07 02:03:11;;;;;;;;;;;;;;;;;;5094845;28;19908;-67
2022/11/07 02:05:37;;;;;;;;;;;;;;;;;;5094753;28;19908;-67
2022/11/07 02:08:03;;;;;;;;;;;;;;;;;;5076561;28;20332;-66
2022/11/07 02:10:29;;;;;;;;;;;;;;;;;;5094328;28;20420;-66
2022/11/07 02:12:55;;;;;;;;;;;;;;;;;;5076568;28;20329;-67
2022/11/07 02:15:21;;;;;;;;;;;;;;;;;;5094138;28;19941;-67
2022/11/07 02:17:47;;;;;;;;;;;;;;;;;;5094303;28;19954;-67
2022/11/07 02:20:13;;;;;;;;;;;;;;;;;;5094555;28;19987;-67
2022/11/07 02:22:39;;;;;;;;;;;;;;;;;;5094458;28;19908;-67
2022/11/07 02:25:05;;;;;;;;;;;;;;;;;;5094292;28;20434;-67
2022/11/07 02:27:31;;;;;;;;;;;;;;;;;;5094656;28;19916;-67
2022/11/07 02:29:56;;;;;;;;;;;;;;;;;;5094456;28;19908;-67
2022/11/07 02:32:22;;;;;;;;;;;;;;;;;;5094048;28;20417;-67
2022/11/07 02:34:48;;;;;;;;;;;;;;;;;;5094566;28;20304;-67
2022/11/07 02:37:14;;;;;;;;;;;;;;;;;;5094323;28;20291;-66
2022/11/07 02:39:40;;;;;;;;;;;;;;;;;;5093950;28;19908;-66
2022/11/07 02:42:06;;;;;;;;;;;;;;;;;;5076208;28;19912;-66
2022/11/07 02:44:32;;;;;;;;;;;;;;;;;;5093812;28;19915;-66
2022/11/07 02:46:58;;;;;;;;;;;;;;;;;;5094148;28;19912;-66
2022/11/07 02:49:24;;;;;;;;;;;;;;;;;;5094213;28;20342;-67
2022/11/07 02:51:50;;;;;;;;;;;;;;;;;;5093715;28;19954;-66
2022/11/07 02:54:16;;;;;;;;;;;;;;;;;;5094108;28;19915;-67
2022/11/07 02:56:42;;;;;;;;;;;;;;;;;;5094063;28;19917;-67
2022/11/07 02:59:08;;;;;;;;;;;;;;;;;;5093706;28;20013;-67
2022/11/07 03:01:34;;;;;;;;;;;;;;;;;;5093954;28;19912;-66
2022/11/07 03:04:00;;;;;;;;;;;;;;;;;;5094020;28;20003;-67
2022/11/07 03:06:26;;;;;;;;;;;;;;;;;;5093316;28;19921;-66
2022/11/07 03:08:52;;;;;;;;;;;;;;;;;;5075836;28;20390;-67
2022/11/07 03:11:18;;;;;;;;;;;;;;;;;;5093934;28;20001;-67
2022/11/07 03:13:44;;;;;;;;;;;;;;;;;;5093602;28;20387;-66
2022/11/07 03:16:10;;;;;;;;;;;;;;;;;;5075783;28;20003;-65
2022/11/07 03:18:36;;;;;;;;;;;;;;;;;;5075719;28;19909;-66
2022/11/07 03:21:02;;;;;;;;;;;;;;;;;;5093745;28;20402;-66
2022/11/07 03:23:28;;;;;;;;;;;;;;;;;;5093791;28;19966;-66
2022/11/07 03:25:54;;;;;;;;;;;;;;;;;;5093824;28;19955;-66
2022/11/07 03:28:20;;;;;;;;;;;;;;;;;;5076918;28;19912;-66
2022/11/07 03:30:46;;;;;;;;;;;;;;;;;;5097817;28;19961;-66
2022/11/07 03:33:12;;;;;;;;;;;;;;;;;;5098379;28;20352;-66
2022/11/07 03:35:38;;;;;;;;;;;;;;;;;;5097331;28;20306;-66
2022/11/07 03:38:04;;;;;;;;;;;;;;;;;;5097690;28;19912;-66
2022/11/07 03:40:30;;;;;;;;;;;;;;;;;;5097657;28;19908;-65
2022/11/07 03:42:56;;;;;;;;;;;;;;;;;;5097321;28;19994;-66
2022/11/07 03:45:22;;;;;;;;;;;;;;;;;;5097691;28;19909;-66
2022/11/07 03:47:48;;;;;;;;;;;;;;;;;;5097065;28;19916;-66
2022/11/07 03:50:14;;;;;;;;;;;;;;;;;;5097465;28;19908;-66
2022/11/07 03:52:40;;;;;;;;;;;;;;;;;;5097585;28;19915;-66
2022/11/07 03:55:06;;;;;;;;;;;;;;;;;;5096944;28;20338;-65
2022/11/07 03:57:32;;;;;;;;;;;;;;;;;;5097297;28;19908;-66
2022/11/07 03:59:57;;;;;;;;;;;;;;;;;;5079089;28;19908;-66
2022/11/07 04:02:23;;;;;;;;;;;;;;;;;;5078603;28;19915;-66
2022/11/07 04:04:49;;;;;;;;;;;;;;;;;;5097289;28;19999;-66
2022/11/07 04:07:15;;;;;;;;;;;;;;;;;;5096869;28;19946;-66
2022/11/07 04:09:41;;;;;;;;;;;;;;;;;;5096665;28;19912;-68
2022/11/07 04:17:36;;;;;;;;;;;;;;;;;;5096579;28;19916;-66
2022/11/07 04:20:02;;;;;;;;;;;;;;;;;;5096886;28;20288;-66
2022/11/07 04:22:28;;;;;;;;;;;;;;;;;;5078643;28;19908;-66
2022/11/07 04:24:54;;;;;;;;;;;;;;;;;;5096457;28;20002;-66
2022/11/07 04:32:50;;;;;;;;;;;;;;;;;;5096762;28;20280;-67
2022/11/07 04:35:15;;;;;;;;;;;;;;;;;;5096605;28;20364;-66
2022/11/07 04:37:41;;;;;;;;;;;;;;;;;;5096125;28;20007;-67
2022/11/07 04:40:07;;;;;;;;;;;;;;;;;;5096535;28;19908;-66
2022/11/07 04:42:33;;;;;;;;;;;;;;;;;;5096776;28;19948;-66
2022/11/07 04:44:59;;;;;;;;;;;;;;;;;;5096124;28;19934;-66
2022/11/07 04:47:25;;;;;;;;;;;;;;;;;;5096277;28;20318;-67
2022/11/07 04:49:51;;;;;;;;;;;;;;;;;;5096369;28;19977;-67
2022/11/07 04:52:17;;;;;;;;;;;;;;;;;;5095869;28;19908;-67
2022/11/07 04:54:43;;;;;;;;;;;;;;;;;;5096251;28;20395;-69
2022/11/07 04:57:09;;;;;;;;;;;;;;;;;;5096542;28;19961;-67
2022/11/07 04:59:35;;;;;;;;;;;;;;;;;;5095724;28;19908;-67
2022/11/07 05:02:01;;;;;;;;;;;;;;;;;;5096250;28;20425;-67
2022/11/07 05:04:27;;;;;;;;;;;;;;;;;;5096008;28;19931;-67
2022/11/07 05:06:53;;;;;;;;;;;;;;;;;;5077192;28;19920;-67
2022/11/07 05:09:19;;;;;;;;;;;;;;;;;;5096011;28;19908;-67
2022/11/07 05:11:45;;;;;;;;;;;;;;;;;;5077774;28;19908;-67
2022/11/07 05:14:11;;;;;;;;;;;;;;;;;;5095497;28;20423;-67
2022/11/07 05:16:37;;;;;;;;;;;;;;;;;;5096365;28;20003;-67
2022/11/07 05:19:03;;;;;;;;;;;;;;;;;;5096040;28;19951;-67
2022/11/07 05:21:29;;;;;;;;;;;;;;;;;;5095349;28;19915;-67
2022/11/07 05:23:55;;;;;;;;;;;;;;;;;;5095667;28;19953;-67
2022/11/07 05:26:21;;;;;;;;;;;;;;;;;;5095197;28;19916;-67
2022/11/07 05:28:47;;;;;;;;;;;;;;;;;;5077466;28;19908;-67
2022/11/07 05:31:13;;;;;;;;;;;;;;;;;;5095539;28;19915;-67
2022/11/07 05:33:39;;;;;;;;;;;;;;;;;;5095055;28;19908;-67
2022/11/07 05:36:05;;;;;;;;;;;;;;;;;;5095452;28;19938;-67
2022/11/07 05:38:31;;;;;;;;;;;;;;;;;;5095451;28;19908;-67
2022/11/07 05:40:56;;;;;;;;;;;;;;;;;;5095051;28;19959;-67
2022/11/07 05:43:23;;;;;;;;;;;;;;;;;;5095498;28;20384;-67
2022/11/07 05:45:51;;;;;;;;;;;;;;;;;;5095813;28;19907;-67
2022/11/07 05:48:17;;;;;;;;;;;;;;;;;;5094782;28;19912;-67
2022/11/07 05:50:43;;;;;;;;;;;;;;;;;;5094493;28;19942;-66
2022/11/07 05:53:09;;;;;;;;;;;;;;;;;;5076933;28;19920;-67
2022/11/07 05:55:35;;;;;;;;;;;;;;;;;;5094665;28;19912;-67
2022/11/07 05:58:01;;;;;;;;;;;;;;;;;;5095217;28;19953;-67
2022/11/07 06:00:26;;;;;;;;;;;;;;;;;;5095243;28;20049;-67
2022/11/07 06:02:52;;;;;;;;;;;;;;;;;;5094513;28;19908;-66
2022/11/07 06:05:18;;;;;;;;;;;;;;;;;;5094762;28;19908;-67
2022/11/07 06:07:44;;;;;;;;;;;;;;;;;;5094614;28;20338;-67
2022/11/07 06:10:10;;;;;;;;;;;;;;;;;;5076063;28;19908;-67
2022/11/07 06:12:36;;;;;;;;;;;;;;;;;;5094702;28;19915;-67
2022/11/07 06:15:02;;;;;;;;;;;;;;;;;;5094474;28;19914;-68
2022/11/07 06:17:28;;;;;;;;;;;;;;;;;;5072615;28;19994;-69
2022/11/07 06:19:54;;;;;;;;;;;;;;;;;;5075705;28;19961;-68
2022/11/07 06:22:20;;;;;;;;;;;;;;;;;;5094603;28;20356;-69
2022/11/07 06:24:46;;;;;;;;;;;;;;;;;;5093801;28;19977;-68
2022/11/07 06:27:13;;;;;;;;;;;;;;;;;;5094090;28;20349;-67
2022/11/07 06:29:39;;;;;;;;;;;;;;;;;;5092713;28;20249;-69
2022/11/07 06:32:05;;;;;;;;;;;;;;;;;;5090926;28;19919;-68
2022/11/07 06:34:31;;;;;;;;;;;;;;;;;;5089241;28;19912;-67
2022/11/07 06:36:57;;;;;;;;;;;;;;;;;;5090671;28;19908;-69
2022/11/07 06:39:23;;;;;;;;;;;;;;;;;;5087828;28;19969;-70
2022/11/07 06:41:48;;;;;;;;;;;;;;;;;;5087738;28;19912;-69
2022/11/07 06:44:14;;;;;;;;;;;;;;;;;;5087137;28;20003;-69
2022/11/07 06:46:40;;;;;;;;;;;;;;;;;;5080391;28;20465;-68
2022/11/07 06:49:06;;;;;;;;;;;;;;;;;;5089295;28;19908;-68
2022/11/07 06:51:32;;;;;;;;;;;;;;;;;;5089268;28;19914;-67
2022/11/07 06:53:58;;;;;;;;;;;;;;;;;;5069737;28;20379;-68
2022/11/07 06:56:24;;;;;;;;;;;;;;;;;;5071061;28;20314;-68
2022/11/07 06:58:50;;;;;;;;;;;;;;;;;;5069810;28;19931;-68
2022/11/07 07:01:16;;;;;;;;;;;;;;;;;;5069735;28;19912;-69
2022/11/07 07:03:42;;;;;;;;;;;;;;;;;;5089735;28;19912;-67
2022/11/07 07:06:08;;;;;;;;;;;;;;;;;;5088867;28;19927;-67
2022/11/07 07:08:34;;;;;;;;;;;;;;;;;;5090901;28;20303;-69
2022/11/07 07:11:00;;;;;;;;;;;;;;;;;;5086152;28;19915;-67
2022/11/07 07:13:26;;;;;;;;;;;;;;;;;;5086673;28;19919;-65
2022/11/07 07:15:54;;;;;;;;;;;;;;;;;;5085626;28;20155;-67
2022/11/07 07:18:20;;;;;;;;;;;;;;;;;;5068778;28;20025;-67
2022/11/07 07:20:46;;;;;;;;;;;;;;;;;;5087327;28;20014;-66
2022/11/07 07:23:12;;;;;;;;;;;;;;;;;;5087750;28;19930;-65
2022/11/07 07:25:38;;;;;;;;;;;;;;;;;;5087356;28;19912;-67
2022/11/07 07:28:04;;;;;;;;;;;;;;;;;;5088589;28;19967;-66
2022/11/07 07:30:29;;;;;;;;;;;;;;;;;;5092245;28;19915;-67
2022/11/07 07:32:55;;;;;;;;;;;;;;;;;;5074727;28;20360;-65
2022/11/07 07:35:21;;;;;;;;;;;;;;;;;;5088508;28;20312;-66
2022/11/07 07:37:47;;;;;;;;;;;;;;;;;;5091043;28;19912;-65
2022/11/07 07:40:13;;;;;;;;;;;;;;;;;;5091867;28;20384;-65
2022/11/07 07:42:40;;;;;;;;;;;;;;;;;;5074013;28;20327;-65
2022/11/07 07:45:05;;;;;;;;;;;;;;;;;;5092075;28;19951;-66
2022/11/07 07:47:31;;;;;;;;;;;;;;;;;;5072965;28;19974;-65
2022/11/07 07:49:57;;;;;;;;;;;;;;;;;;5092583;28;19953;-65
2022/11/07 07:52:23;;;;;;;;;;;;;;;;;;5092240;28;19912;-66
2022/11/07 07:54:49;;;;;;;;;;;;;;;;;;5090164;28;20383;-67
2022/11/07 07:57:15;;;;;;;;;;;;;;;;;;5090311;28;20364;-66
2022/11/07 07:59:41;;;;;;;;;;;;;;;;;;5087675;28;19913;-65
2022/11/07 08:02:07;;;;;;;;;;;;;;;;;;5087740;28;20334;-65
2022/11/07 08:04:33;;;;;;;;;;;;;;;;;;5070307;28;19931;-66
2022/11/07 08:06:59;;;;;;;;;;;;;;;;;;5087927;28;19924;-65
2022/11/07 08:09:25;;;;;;;;;;;;;;;;;;5088831;28;19961;-66
2022/11/07 08:11:51;;;;;;;;;;;;;;;;;;5089935;28;19908;-66
2022/11/07 08:14:17;;;;;;;;;;;;;;;;;;5093745;28;19915;-66
2022/11/07 08:16:43;;;;;;;;;;;;;;;;;;5087865;28;19912;-66
2022/11/07 08:19:09;;;;;;;;;;;;;;;;;;5070224;28;19917;-66
2022/11/07 08:21:35;;;;;;;;;;;;;;;;;;5091012;28;19923;-67
2022/11/07 08:24:02;;;;;;;;;;;;;;;;;;5095094;28;19908;-67
2022/11/07 08:26:28;;;;;;;173.48;156.75;;;;;;;;;;5095216;28;20394;-68
2022/11/07 08:28:54;;;;;;;;;;;;;;;;;;5077380;28;20040;-67
2022/11/07 08:31:20;;;;;;;;;;;;;;;;;;5094344;28;19910;-66
2022/11/07 08:33:46;;;;;;;;;;;;;;;;;;5091544;28;19904;-68
2022/11/07 08:36:12;;;;;;;;;;;;;;;;;;5092814;28;19912;-67
2022/11/07 08:38:38;;;;;;;;;;;;;;;;;;5074727;28;20003;-68
2022/11/07 08:41:04;;;;;;;;;;;;;;;;;;5086933;28;19911;-69
2022/11/07 08:43:30;;;;;;;;;;;;;;;;;;5078657;28;19915;-73
2022/11/07 08:45:56;;;;;;;;;;;;;;;;;;5073494;28;20010;-72
2022/11/07 08:48:22;;;;;;;;;;;;;;;;;;5053412;28;20379;-68
2022/11/07 08:50:48;;;;;;;;;;;;;;;;;;5070979;28;19905;-66
2022/11/07 08:53:14;;;;;;;;;;;;;;;;;;5071284;28;19908;-68
2022/11/07 08:55:40;;;;;;;;;;;;;;;;;;5052393;28;19950;-70
2022/11/07 08:58:05;;;;;;;;;;;;;;;;;;5070355;28;20428;-68
2022/11/07 09:00:31;;;;;;;;;;;;;;;;;;5071722;28;20321;-67
2022/11/07 09:02:57;;;;;;;;;;;;;;;;;;5072876;28;19911;-66
2022/11/07 09:05:23;;;;;;;;;;;;;;;;;;5072496;28;19998;-67
2022/11/07 09:07:49;;;;;;;;;;;;;;;;;;5070080;28;19931;-68
2022/11/07 09:10:15;;;;;;;;;;;;;;;;;;5080986;28;20222;-66
2022/11/07 09:12:41;;;;;;;;;;;;;;;;;;5089807;28;20363;-66
2022/11/07 09:15:46;;;;;;;;;;;;;;;;;;5108577;27;19922;-67
2022/11/07 09:18:12;;;;;;;;;;;;;;;;;;5107913;28;20535;-68
2022/11/07 09:20:38;;;;;;;;;;;;;;;;;;5110472;28;19908;-66
2022/11/07 09:23:04;;;;;;;;;;;;;;;;;;5110051;28;20326;-69
2022/11/07 09:25:30;;;;;;;;;;;;;;;;;;5108952;28;19912;-68
2022/11/07 09:27:57;;;;;;;;;;;;;;;;;;5110438;28;19973;-68
2022/11/07 09:30:23;;;;;;;;;;;;;;;;;;5108617;28;19908;-68
2022/11/07 09:32:49;;;;;;;;;;;;;;;;;;5106215;28;19916;-67
2022/11/07 09:35:15;;;;;;;;;;;;;;;;;;5104452;28;20403;-68
2022/11/07 09:37:41;;;;;;;;;;;;;;;;;;5105028;28;19935;-71
2022/11/07 09:40:07;;;;;;;;;;;;;;;;;;5106944;28;19908;-66
2022/11/07 09:42:33;;;;;;;;;;;;;;;;;;5107422;28;21993;-67
2022/11/07 09:44:59;;;;;;;;;;;;;;;;;;5110409;28;20316;-67
2022/11/07 09:47:25;;;;;;;;;;;;;;;;;;5107565;28;19912;-68
2022/11/07 09:49:51;;;;;;;;;;;;;;;;;;5108163;28;20368;-68
2022/11/07 09:53:53;;;;;;;;;;;;;;;;;;5111059;27;19926;-69
2022/11/07 09:56:19;;;;;;;;;;;;;;;;;;5109473;28;19912;-68
2022/11/07 09:58:45;;;;;;;;;;;;;;;;;;5111050;28;20325;-68
2022/11/07 10:01:11;;;;;;;;;;;;;;;;;;5102913;28;19912;-68
2022/11/07 10:03:37;;;;;;;;;;;;;;;;;;5108716;28;19916;-70
2022/11/07 10:06:04;;;;;;;;;;;;;;;;;;5119889;28;20319;-68
2022/11/07 10:08:30;;;;;;;;;;;;;;;;;;5105251;28;19955;-68
2022/11/07 10:10:56;;;;;;;;;;;;;;;;;;5105065;28;19923;-69
2022/11/07 10:13:21;;;;;;;;;;;;;;;;;;5110696;28;19920;-68
2022/11/07 10:15:47;;;;;;;;;;;;;;;;;;5110002;28;19955;-66
2022/11/07 10:20:19;;;;;;;;;;;;;;;;;;5090272;27;19931;-68
2022/11/07 10:22:44;;;;;;;;;;;;;;;;;;5090187;28;19912;-68
2022/11/07 10:25:10;;;;;;;;;;;;;;;;;;5101500;28;19912;-68
2022/11/07 10:28:35;;;;;;;;;;;;;;;;;;5091036;27;19917;-68
2022/11/07 10:32:57;;;;;;;;;;;;;;;;;;5094465;27;19920;-66
2022/11/07 10:38:56;;;;;;;319.00;218.27;;;;;;;;;;5110035;27;20344;-67
2022/11/07 10:44:03;;;;;;;;;;;;;;;;;;5089143;27;19992;-67
2022/11/07 10:46:29;;;;;;;;;;;;;;;;;;5089153;28;20042;-69
2022/11/07 10:48:55;;;;;;;;;;;;;;;;;;5088972;28;19909;-71
2022/11/07 10:51:21;;;;;;;;;;;;;;;;;;5087895;28;19909;-71
2022/11/07 10:55:40;;;;;;;;;;;;;;;;;;5110515;27;19916;-66
2022/11/07 10:59:55;;;;;;;;;;;;;;;;;;5050463;28;19975;-66
2022/11/07 11:02:21;;;;;;;;;;;;;;;;;;5051441;28;20330;-66
2022/11/07 11:06:31;;;;;;;382.48;242.57;;;;;;;;;;5093931;27;20693;-67
2022/11/07 11:08:57;;;;;;;;;;;;;;;;;;5095342;28;20036;-66
2022/11/07 11:11:23;;;;;;;;;;;;;;;;;;5099192;28;19911;-68
2022/11/07 11:13:49;;;;;;;;;;;;;;;;;;5109391;28;20356;-67
2022/11/07 11:16:15;;;;;;;;;;;;;;;;;;5108596;28;19965;-67
2022/11/07 11:21:48;;;;;;;;;;;;;;;;;;5100451;28;19920;-67
2022/11/07 11:24:14;;;;;;;;;;;;;;;;;;5102018;28;19919;-68
2022/11/07 11:27:20;;;;;;;;;;;;;;;;;;5127647;27;19916;-66
2022/11/07 11:29:46;;;;;;;;;;;;;;;;;;5106751;27;19918;-66
2022/11/07 11:32:12;;;;;;;;;;;;;;;;;;5106295;28;19908;-67
2022/11/07 11:34:38;;;;;;;;;;;;;;;;;;5106650;28;19908;-67
2022/11/07 11:39:33;;;;;;;;;;;;;;;;;;5086145;28;19912;-67
2022/11/07 11:41:59;;;;;;;;;;;;;;;;;;5085567;28;19952;-68
2022/11/07 11:44:25;;;;;;;;;;;;;;;;;;5088195;28;19908;-69
2022/11/07 11:46:51;;;;;;;;;;;;;;;;;;5087676;28;20348;-69
2022/11/07 11:49:54;;;;;;;;;;;;;;;;;;5108792;27;19920;-69
2022/11/07 11:52:20;;;;;;;;;;;;;;;;;;5108463;28;19934;-71
2022/11/07 11:57:16;;;;;;;;;;;;;;;;;;5077566;27;19916;-66
2022/11/07 11:59:41;;;;;;;;;;;;;;;;;;5077805;28;19913;-69
2022/11/07 12:02:07;;;;;;;;;;;;;;;;;;5073805;28;19913;-68
2022/11/07 12:04:33;;;;;;;;;;;;;;;;;;5070400;28;19908;-69
2022/11/07 12:06:59;;;;;;;;;;;;;;;;;;5085730;28;19916;-67
2022/11/07 12:09:37;;;;;;;;;;;;;;;;;;5089809;27;19927;-67
2022/11/07 12:12:20;;;;;;;326.38;227.52;;;;;;;;;;5088780;28;20472;-68
2022/11/07 12:16:45;;;;;;;;;;;;;;;;;;5085508;27;19916;-67
2022/11/07 12:19:11;;;;;;;;;;;;;;;;;;5082987;28;20375;-65
2022/11/07 12:22:10;;;;;;;;;;;;;;;;;;5104434;27;19927;-66
2022/11/07 12:24:36;;;;;;;;;;;;;;;;;;5105014;28;19912;-66
2022/11/07 12:27:02;;;;;;;;;;;;;;;;;;5108022;28;20038;-67
2022/11/07 12:29:28;;;;;;;;;;;;;;;;;;5094473;28;19999;-66
2022/11/07 12:31:54;;;;;;;;;;;;;;;;;;5090123;28;19998;-67
2022/11/07 12:34:20;;;;;;;;;;;;;;;;;;5089961;28;19912;-66
2022/11/07 12:36:46;;;;;;;;;;;;;;;;;;5090205;28;19915;-67
2022/11/07 12:39:12;;;;;;;;;;;;;;;;;;5088991;28;19961;-67
2022/11/07 12:41:38;;;;;;;;;;;;;;;;;;5089495;28;19927;-68
2022/11/07 12:45:55;;;;;;;;;;;;;;;;;;5088019;27;20014;-69
2022/11/07 12:48:21;;;;;;;;;;;;;;;;;;5086006;28;20003;-67
2022/11/07 12:50:47;;;;;;;;;;;;;;;;;;5088655;28;20353;-67
2022/11/07 12:53:13;;;;;;;;;;;;;;;;;;5097916;28;20370;-66
2022/11/07 12:55:39;;;;;;;;;;;;;;;;;;5095706;28;20014;-68
2022/11/07 12:58:05;;;;;;;;;;;;;;;;;;5079671;28;20261;-68
2022/11/07 13:00:31;;;;;;;;;;;;;;;;;;5086270;28;19966;-67
2022/11/07 13:02:57;;;;;;;;;;;;;;;;;;5088339;28;20403;-68
2022/11/07 13:05:23;;;;;;;;;;;;;;;;;;5089414;28;20308;-69
2022/11/07 13:07:49;;;;;;;;;;;;;;;;;;5089258;28;19916;-67
2022/11/07 13:10:15;;;;;;;;;;;;;;;;;;5092679;28;19919;-69
2022/11/07 13:12:41;;;;;;;;;;;;;;;;;;5090720;28;19913;-68
2022/11/07 13:15:07;;;;;;;;;;;;;;;;;;5084197;28;19946;-68
2022/11/07 13:17:40;;;;;;;487.30;283.75;;;;;;;;;;5074383;28;20387;-67
2022/11/07 13:20:06;;;;;;;;;;;;;;;;;;5094554;28;20020;-67
2022/11/07 13:22:32;;;;;;;;;;;;;;;;;;5084126;28;19904;-69
2022/11/07 13:24:58;;;;;;;;;;;;;;;;;;5084404;28;19912;-70
2022/11/07 13:27:24;;;;;;;;;;;;;;;;;;5081650;28;20088;-67
2022/11/07 13:29:50;;;;;;;;;;;;;;;;;;5087976;28;19980;-69
2022/11/07 13:32:16;;;;;;;;;;;;;;;;;;5082851;28;19928;-68
2022/11/07 13:34:42;;;;;;;;;;;;;;;;;;5070861;28;20288;-70
2022/11/07 13:37:08;;;;;;;;;;;;;;;;;;5077032;28;19930;-70
2022/11/07 13:39:34;;;;;;;;;;;;;;;;;;5067268;28;19934;-68
2022/11/07 13:42:00;;;;;;;;;;;;;;;;;;5073157;28;19944;-69
2022/11/07 13:44:26;;;;;;;;;;;;;;;;;;5090108;28;20004;-69
2022/11/07 13:46:52;;;;;;;;;;;;;;;;;;5098942;28;20000;-70
2022/11/07 13:49:18;;;;;;;;;;;;;;;;;;5086639;28;19904;-69
2022/11/07 13:51:44;;;;;;;;;;;;;;;;;;5095081;28;19908;-68
2022/11/07 13:54:11;;;;;;;;;;;;;;;;;;5102584;28;19903;-68
2022/11/07 13:56:36;;;;;;;;;;;;;;;;;;5096286;28;19914;-69
2022/11/07 13:59:02;;;;;;;;;;;;;;;;;;5092544;28;19908;-69
2022/11/07 14:01:28;;;;;;;;;;;;;;;;;;5074061;28;20342;-69
2022/11/07 14:03:54;;;;;;;;;;;;;;;;;;5094086;28;19941;-69
2022/11/07 14:06:20;;;;;;;;;;;;;;;;;;5076501;28;20284;-69
2022/11/07 14:10:38;;;;;;;;;;;;;;;;;;5171746;27;19915;-67
2022/11/07 14:13:06;;;;;;;;;;;;;;;;;;5171810;27;19918;-67
2022/11/07 14:15:31;;;;;;;;;;;;;;;;;;5171014;27;19907;-67
2022/11/07 14:17:57;;;;;;;;;;;;;;;;;;5171158;27;19944;-66
2022/11/07 14:20:23;;;;;;;;;;;;;;;;;;5157115;27;19911;-68
2022/11/07 14:22:49;;;;;;;;;;;;;;;;;;5131215;27;19907;-68
2022/11/07 14:25:15;;;;;;;;;;;;;;;;;;5150238;27;19907;-67
2022/11/07 14:27:41;;;;;;;;;;;;;;;;;;5150060;27;19960;-67
2022/11/07 14:30:08;;;;;;;;;;;;;;;;;;5151091;27;19915;-69
2022/11/07 14:32:54;;;;;;;;;;;;;;;;;;5111703;27;19923;-67
2022/11/07 14:35:20;;;;;;;;;;;;;;;;;;5111076;28;20003;-70
2022/11/07 14:37:46;;;;;;;;;;;;;;;;;;5111270;28;19915;-67
2022/11/07 14:40:12;;;;;;;;;;;;;;;;;;5111361;28;19908;-67
2022/11/07 14:42:38;;;;;;;;;;;;;;;;;;5110930;28;19948;-67
2022/11/07 14:46:38;;;;;;;;;;;;;;;;;;5091447;27;19913;-67
2022/11/07 14:49:05;;;;;;;;;;;;;;;;;;5090823;28;19943;-66
2022/11/07 14:51:31;;;;;;;;;;;;;;;;;;5091159;28;19999;-67
2022/11/07 14:53:57;;;;;;;;;;;;;;;;;;5091099;28;20133;-66
2022/11/07 14:57:33;;;;;;;;;;;;;;;;;;5111444;27;20287;-66
2022/11/07 14:59:59;;;;;;;;;;;;;;;;;;5111634;28;19998;-67
2022/11/07 15:02:25;;;;;;;;;;;;;;;;;;5111541;28;19908;-67
2022/11/07 15:04:51;;;;;;;;;;;;;;;;;;5111080;28;19915;-67
2022/11/07 15:08:44;;;;;;;;;;;;;;;;;;5091804;27;19922;-67
2022/11/07 15:11:10;;;;;;;;;;;;;;;;;;5090830;28;20011;-68
2022/11/07 15:14:57;;;;;;;;;;;;;;;;;;5091845;27;19923;-67
2022/11/07 15:17:23;;;;;;;;;;;;;;;;;;5091056;28;20351;-68
2022/11/07 15:22:15;;;;;;;;;;;;;;;;;;5111912;27;19916;-69
2022/11/07 15:24:41;;;;;;;;;;;;;;;;;;5111259;28;19919;-67
2022/11/07 15:27:07;;;;;;;;;;;;;;;;;;5111694;28;20284;-67
2022/11/07 15:29:33;;;;;;;;;;;;;;;;;;5110358;28;19908;-69
2022/11/07 15:31:59;;;;;;;;;;;;;;;;;;5111017;28;19908;-66
2022/11/07 15:34:26;;;;;;;;;;;;;;;;;;5111384;28;19912;-68
2022/11/07 15:36:52;;;;;;;;;;;;;;;;;;5111391;28;19909;-67
2022/11/07 15:39:18;;;;;;;;;;;;;;;;;;5110982;28;19908;-69
2022/11/07 15:43:40;;;;;;;;;;;;;;;;;;5111656;27;20406;-66
2022/11/07 15:47:52;;;;;;;;;;;;;;;;;;5111919;27;19916;-65
2022/11/07 15:50:18;;;;;;;;;;;;;;;;;;5111713;28;20431;-66
2022/11/07 15:52:44;;;;;;;;;;;;;;;;;;5111298;28;19908;-67
2022/11/07 15:55:10;;;;;;;;;;;;;;;;;;5111636;28;19908;-67
2022/11/07 15:57:36;;;;;;;;;;;;;;;;;;5110309;28;19908;-66
2022/11/07 16:00:02;;;;;;;;;;;;;;;;;;5111308;28;20003;-67
2022/11/07 16:02:28;;;;;;;;;;;;;;;;;;5111437;28;19908;-67
2022/11/07 16:06:26;;;;;;;;;;;;;;;;;;5090962;27;19916;-67
2022/11/07 16:08:52;;;;;;;;;;;;;;;;;;5091279;28;19912;-68
2022/11/07 16:11:18;;;;;;;;;;;;;;;;;;5091183;28;19915;-68
2022/11/07 16:13:44;;;;;;;;;;;;;;;;;;5090751;28;19909;-67
2022/11/07 16:16:10;;;;;;;;;;;;;;;;;;5091225;28;19916;-69
2022/11/07 16:18:36;;;;;;;;;;;;;;;;;;5091225;28;20421;-68
2022/11/07 16:21:02;;;;;;;;;;;;;;;;;;5090967;28;20322;-67
2022/11/07 16:23:27;;;;;;;;;;;;;;;;;;5089837;28;19942;-67
2022/11/07 16:25:54;;;;;;;;;;;;;;;;;;5090780;28;19924;-66
2022/11/07 16:28:20;;;;;;;;;;;;;;;;;;5089264;28;19961;-67
2022/11/07 16:30:46;;;;;;;;;;;;;;;;;;5090895;28;20006;-67
2022/11/07 16:33:12;;;;;;;;;;;;;;;;;;5090886;28;20264;-68
2022/11/07 16:35:38;;;;;;;;;;;;;;;;;;5089109;28;19912;-67
2022/11/07 16:38:04;;;;;;;;;;;;;;;;;;5090757;28;19908;-67
2022/11/07 16:40:30;;;;;;;;;;;;;;;;;;5090701;28;19908;-69
2022/11/07 16:42:56;;;;;;;;;;;;;;;;;;5090144;28;19958;-68
2022/11/07 16:45:22;;;;;;;;;;;;;;;;;;5090738;28;20015;-68
2022/11/07 16:47:48;;;;;;;;;;;;;;;;;;5090759;28;20330;-68
2022/11/07 16:50:14;;;;;;;;;;;;;;;;;;5090338;28;19935;-67
2022/11/07 16:52:40;;;;;;;;;;;;;;;;;;5090612;28;19909;-67
2022/11/07 16:55:06;;;;;;;;;;;;;;;;;;5089367;28;19950;-67
2022/11/07 16:57:31;;;;;;;;;;;;;;;;;;5090341;28;19999;-68
2022/11/07 16:59:57;;;;;;;;;;;;;;;;;;5090480;28;19909;-67
2022/11/07 17:02:23;;;;;;;;;;;;;;;;;;5090440;28;19998;-68
2022/11/07 17:04:49;;;;;;;;;;;;;;;;;;5097042;28;19969;-68
2022/11/07 17:07:15;;;;;;;;;;;;;;;;;;5110694;28;19918;-68
2022/11/07 17:09:41;;;;;;;;;;;;;;;;;;5110243;28;19955;-67
2022/11/07 17:12:07;;;;;;;;;;;;;;;;;;5110482;28;20265;-67
2022/11/07 17:14:33;;;;;;;;;;;;;;;;;;5092314;28;20287;-68
2022/11/07 17:16:59;;;;;;;;;;;;;;;;;;5100947;28;19920;-67
2022/11/07 17:19:26;;;;;;;;;;;;;;;;;;5096833;28;19908;-66
2022/11/07 17:21:52;;;;;;;;;;;;;;;;;;5096722;28;19908;-68
2022/11/07 17:24:18;;;;;;;;;;;;;;;;;;5096239;28;20380;-67
2022/11/07 17:26:44;;;;;;;;;;;;;;;;;;5096632;28;20398;-67
2022/11/07 17:29:11;;;;;;;;;;;;;;;;;;5078363;28;19934;-67
2022/11/07 17:32:42;;;;;;;;;;;;;;;;;;5111395;27;19916;-66
2022/11/07 17:35:08;;;;;;;;;;;;;;;;;;5111665;28;19916;-66
2022/11/07 17:37:34;;;;;;;;;;;;;;;;;;5111566;28;19969;-67
2022/11/07 17:40:00;;;;;;;;;;;;;;;;;;5111195;28;19914;-67